Time;durP1;ratioP1;P1;durP2;ratioP2;P2;SDS_P1;SDS_P2;PMS_P1;PMS_P2;Temp;Humidity;BMP_temperature;BMP_pressure;BME280_temperature;BME280_humidity;BME280_pressure;Samples;Min_cycle;Max_cycle;Signal;HPM_P1;HPM_P2
2023/03/04 00:00:47;;;;;;;12.47;7.40;;;2.20;71.10;;;;;;950845;149;27800;-75
2023/03/04 00:03:17;;;;;;;8.40;6.93;;;2.20;71.30;;;;;;948828;149;27356;-77
2023/03/04 00:05:43;;;;;;;9.60;6.53;;;2.10;71.30;;;;;;948048;149;27323;-76
2023/03/04 00:08:10;;;;;;;8.97;6.77;;;2.10;71.30;;;;;;946939;149;27445;-76
2023/03/04 00:10:37;;;;;;;10.80;6.37;;;2.10;71.60;;;;;;948827;149;27399;-76
2023/03/04 00:13:03;;;;;;;9.50;7.00;;;2.00;71.60;;;;;;948235;149;27905;-76
2023/03/04 00:15:30;;;;;;;10.63;6.90;;;2.00;71.70;;;;;;948064;149;27413;-76
2023/03/04 00:17:56;;;;;;;8.27;6.27;;;2.00;72.70;;;;;;949473;149;27440;-75
2023/03/04 00:20:23;;;;;;;13.30;7.83;;;2.00;72.00;;;;;;950299;147;27455;-76
2023/03/04 00:22:49;;;;;;;10.77;7.37;;;2.00;71.80;;;;;;958468;147;27377;-77
2023/03/04 00:25:16;;;;;;;12.33;7.13;;;1.90;71.80;;;;;;958808;147;27369;-75
2023/03/04 00:27:43;;;;;;;10.10;7.33;;;1.90;72.10;;;;;;960391;147;27304;-76
2023/03/04 00:30:09;;;;;;;10.73;7.23;;;1.90;72.20;;;;;;959671;147;27305;-75
2023/03/04 00:32:36;;;;;;;9.97;6.63;;;1.90;72.30;;;;;;960180;147;27342;-76
2023/03/04 00:35:02;;;;;;;12.40;7.93;;;1.90;72.30;;;;;;961849;147;27911;-77
2023/03/04 00:37:29;;;;;;;10.93;7.10;;;1.90;72.30;;;;;;956142;147;27442;-75
2023/03/04 00:39:56;;;;;;;12.10;7.17;;;1.80;72.50;;;;;;959357;147;27277;-76
2023/03/04 00:42:22;;;;;;;11.43;7.67;;;1.80;72.30;;;;;;959553;147;27776;-75
2023/03/04 00:44:50;;;;;;;12.17;8.13;;;1.80;73.10;;;;;;960164;147;27324;-76
2023/03/04 00:47:15;;;;;;;8.80;6.60;;;1.80;72.50;;;;;;959495;147;27343;-75
2023/03/04 00:49:42;;;;;;;8.83;6.57;;;1.70;72.40;;;;;;958509;147;28267;-75
2023/03/04 00:52:09;;;;;;;8.30;6.70;;;1.70;72.50;;;;;;958096;147;27382;-75
2023/03/04 00:54:35;;;;;;;12.17;7.23;;;1.70;72.60;;;;;;961522;147;27367;-76
2023/03/04 00:57:02;;;;;;;9.80;6.80;;;1.70;72.70;;;;;;958338;147;27370;-76
2023/03/04 00:59:28;;;;;;;13.07;7.27;;;1.70;72.60;;;;;;961431;147;27372;-75
2023/03/04 01:01:55;;;;;;;11.90;7.90;;;1.70;72.70;;;;;;959212;147;27296;-75
2023/03/04 01:04:22;;;;;;;9.30;6.47;;;1.60;72.60;;;;;;959465;147;27305;-75
2023/03/04 01:09:25;;;;;;;11.97;7.00;;;1.60;72.70;;;;;;942086;145;27507;-75
2023/03/04 01:11:50;;;;;;;9.57;6.57;;;1.50;73.30;;;;;;929377;151;27364;-75
2023/03/04 01:14:17;;;;;;;9.37;6.37;;;1.50;72.70;;;;;;924732;151;27266;-77
2023/03/04 01:16:44;;;;;;;8.43;6.50;;;1.50;72.80;;;;;;923880;151;27377;-77
2023/03/04 01:19:10;;;;;;;9.60;6.23;;;1.50;73.10;;;;;;927119;151;27395;-77
2023/03/04 01:21:37;;;;;;;9.80;6.87;;;1.50;73.20;;;;;;926087;151;27367;-77
2023/03/04 01:24:03;;;;;;;10.43;6.87;;;1.50;73.50;;;;;;925392;151;27435;-78
2023/03/04 01:26:30;;;;;;;9.60;7.23;;;1.60;73.80;;;;;;925414;151;27384;-77
2023/03/04 01:28:56;;;;;;;10.27;6.80;;;1.70;74.00;;;;;;923724;151;27494;-77
2023/03/04 01:31:23;;;;;;;9.73;7.03;;;1.70;74.00;;;;;;926300;151;27498;-77
2023/03/04 01:33:50;;;;;;;8.80;6.73;;;1.80;74.10;;;;;;924659;151;27719;-77
2023/03/04 01:36:16;;;;;;;10.97;7.20;;;2.00;74.30;;;;;;926246;151;27365;-77
2023/03/04 01:38:43;;;;;;;9.63;7.17;;;2.00;74.20;;;;;;926196;151;27467;-77
2023/03/04 01:41:09;;;;;;;10.63;7.57;;;2.20;74.20;;;;;;898069;156;27523;-77
2023/03/04 01:43:36;;;;;;;13.00;7.93;;;2.30;74.20;;;;;;897594;156;27457;-78
2023/03/04 01:46:03;;;;;;;11.73;7.77;;;2.40;74.10;;;;;;894072;156;27502;-77
2023/03/04 01:48:30;;;;;;;11.10;7.17;;;2.50;74.10;;;;;;896387;156;27398;-78
2023/03/04 01:50:58;;;;;;;10.90;6.73;;;2.60;73.90;;;;;;902632;156;27401;-78
2023/03/04 01:53:22;;;;;;;11.60;7.90;;;2.70;73.90;;;;;;912065;153;27436;-78
2023/03/04 01:55:49;;;;;;;11.83;8.20;;;2.80;73.80;;;;;;911728;153;27370;-78
2023/03/04 01:58:16;;;;;;;11.40;7.27;;;2.80;73.60;;;;;;908886;153;28186;-78
2023/03/04 02:00:42;;;;;;;11.43;7.90;;;2.90;73.60;;;;;;910682;153;27405;-78
2023/03/04 02:03:15;;;;;;;9.13;7.50;;;3.00;73.50;;;;;;911277;153;27440;-78
2023/03/04 02:05:41;;;;;;;11.73;7.77;;;3.10;73.50;;;;;;910077;153;27519;-78
2023/03/04 02:08:08;;;;;;;11.37;8.00;;;3.20;73.50;;;;;;912635;151;27488;-78
2023/03/04 02:10:34;;;;;;;11.43;8.33;;;3.20;73.30;;;;;;914674;153;27433;-78
2023/03/04 02:13:01;;;;;;;9.07;6.57;;;3.30;73.40;;;;;;913720;152;27522;-78
2023/03/04 02:15:28;;;;;;;9.57;6.93;;;3.40;73.20;;;;;;914396;153;27410;-78
2023/03/04 02:17:54;;;;;;;9.37;7.70;;;3.40;73.10;;;;;;912960;152;27339;-78
2023/03/04 02:20:30;;;;;;;10.23;7.33;;;3.50;73.10;;;;;;931894;150;27357;-78
2023/03/04 02:23:02;;;;;;;10.23;7.07;;;3.50;72.90;;;;;;913650;153;27370;-78
2023/03/04 02:25:47;;;;;;;9.63;6.70;;;3.60;73.00;;;;;;930302;150;27415;-78
2023/03/04 02:28:13;;;;;;;11.70;8.20;;;3.60;72.80;;;;;;929445;150;27490;-78
2023/03/04 02:30:40;;;;;;;12.07;8.03;;;3.70;72.70;;;;;;913020;153;27501;-78
2023/03/04 02:33:06;;;;;;;11.67;8.30;;;3.70;72.70;;;;;;910855;153;27382;-78
2023/03/04 02:35:33;;;;;;;11.73;7.80;;;3.70;72.60;;;;;;928121;150;28439;-78
2023/03/04 02:37:59;;;;;;;9.67;7.10;;;3.80;72.60;;;;;;914090;153;27869;-78
2023/03/04 02:40:26;;;;;;;12.33;7.67;;;3.80;72.60;;;;;;911808;152;27359;-78
2023/03/04 02:42:53;;;;;;;11.23;7.63;;;3.90;72.60;;;;;;912178;153;27350;-78
2023/03/04 02:45:37;;;;;;;13.20;8.67;;;3.90;72.50;;;;;;913364;153;27978;-78
2023/03/04 02:48:03;;;;;;;11.30;7.67;;;4.00;72.50;;;;;;914707;153;27400;-78
2023/03/04 02:50:30;;;;;;;10.13;7.40;;;4.00;72.40;;;;;;928311;150;27361;-78
2023/03/04 02:52:57;;;;;;;10.00;7.90;;;4.00;72.30;;;;;;913236;153;27305;-78
2023/03/04 02:55:23;;;;;;;9.83;7.60;;;4.00;72.30;;;;;;926869;150;27477;-78
2023/03/04 02:57:50;;;;;;;8.90;7.47;;;4.10;72.30;;;;;;913229;153;27419;-78
2023/03/04 03:00:16;;;;;;;12.97;8.20;;;4.10;72.20;;;;;;930235;150;27885;-78
2023/03/04 03:02:43;;;;;;;11.57;7.73;;;4.10;72.20;;;;;;913440;153;27305;-78
2023/03/04 03:05:10;;;;;;;11.27;7.47;;;4.20;72.10;;;;;;913564;153;27394;-78
2023/03/04 03:07:37;;;;;;;10.80;6.77;;;4.20;72.10;;;;;;930437;150;27389;-78
2023/03/04 03:10:03;;;;;;;9.00;6.43;;;4.20;72.00;;;;;;910388;153;27455;-78
2023/03/04 03:12:29;;;;;;;12.80;7.80;;;4.20;71.90;;;;;;911939;154;27403;-78
2023/03/04 03:14:56;;;;;;;10.57;7.07;;;4.20;71.80;;;;;;901813;155;27388;-78
2023/03/04 03:17:23;;;;;;;13.00;8.50;;;4.30;71.80;;;;;;901819;154;27458;-78
2023/03/04 03:19:49;;;;;;;10.70;7.73;;;4.30;71.80;;;;;;925000;151;27464;-78
2023/03/04 03:22:16;;;;;;;11.37;7.87;;;4.30;71.70;;;;;;938107;148;27426;-78
2023/03/04 03:24:42;;;;;;;11.07;8.03;;;4.20;71.70;;;;;;938740;148;27320;-78
2023/03/04 03:27:09;;;;;;;10.57;7.20;;;4.20;71.70;;;;;;924482;151;27347;-78
2023/03/04 03:29:35;;;;;;;9.50;6.83;;;4.20;71.70;;;;;;919898;152;27401;-78
2023/03/04 03:32:02;;;;;;;9.77;7.97;;;4.20;71.80;;;;;;905423;154;27350;-78
2023/03/04 03:34:29;;;;;;;12.13;8.63;;;4.20;71.70;;;;;;919877;152;27474;-78
2023/03/04 03:36:55;;;;;;;11.87;8.37;;;4.20;71.70;;;;;;902827;155;27462;-78
2023/03/04 03:39:22;;;;;;;11.07;7.53;;;4.20;72.50;;;;;;919955;152;27399;-78
2023/03/04 03:41:49;;;;;;;8.20;7.30;;;4.20;71.70;;;;;;912926;153;27344;-78
2023/03/04 03:44:15;;;;;;;13.07;8.53;;;4.20;71.70;;;;;;900375;155;27399;-78
2023/03/04 03:46:42;;;;;;;9.13;6.97;;;4.20;71.80;;;;;;905554;154;27369;-78
2023/03/04 03:49:08;;;;;;;11.07;7.97;;;4.20;71.70;;;;;;916634;152;27412;-78
2023/03/04 03:51:35;;;;;;;9.60;7.60;;;4.20;71.70;;;;;;901245;155;27586;-78
2023/03/04 03:54:01;;;;;;;10.73;7.33;;;4.20;71.80;;;;;;902575;155;27407;-78
2023/03/04 03:56:28;;;;;;;10.00;7.53;;;4.20;71.80;;;;;;920462;152;27408;-78
2023/03/04 03:59:00;;;;;;;10.13;8.07;;;4.20;71.80;;;;;;922596;151;27759;-76
2023/03/04 04:01:24;;;;;;;11.87;7.87;;;4.20;71.80;;;;;;939010;148;27497;-76
2023/03/04 04:03:50;;;;;;;9.17;7.37;;;4.20;71.80;;;;;;922785;151;27300;-76
2023/03/04 04:06:17;;;;;;;9.97;7.80;;;4.10;71.80;;;;;;926044;151;27373;-76
2023/03/04 04:08:43;;;;;;;12.60;8.23;;;4.10;71.90;;;;;;938990;148;27931;-76
2023/03/04 04:11:10;;;;;;;12.43;9.00;;;4.10;71.90;;;;;;922152;151;27540;-76
2023/03/04 04:13:37;;;;;;;10.90;8.10;;;4.10;72.00;;;;;;928607;150;27444;-76
2023/03/04 04:16:03;;;;;;;11.80;8.57;;;4.10;72.00;;;;;;928019;150;27339;-76
2023/03/04 04:18:30;;;;;;;12.30;8.30;;;4.20;72.10;;;;;;930042;150;27536;-76
2023/03/04 04:20:56;;;;;;;11.87;8.37;;;4.20;72.10;;;;;;929050;150;27407;-76
2023/03/04 04:23:23;;;;;;;12.20;7.83;;;4.20;72.30;;;;;;928831;150;27379;-76
2023/03/04 04:25:50;;;;;;;10.97;8.33;;;4.20;72.10;;;;;;925634;150;27367;-76
2023/03/04 04:28:16;;;;;;;10.40;7.43;;;4.20;72.20;;;;;;926443;150;27395;-76
2023/03/04 04:30:43;;;;;;;10.87;8.10;;;4.20;72.20;;;;;;926968;150;27491;-76
2023/03/04 04:33:09;;;;;;;11.23;8.07;;;4.30;72.20;;;;;;928854;150;27370;-76
2023/03/04 04:35:37;;;;;;;13.13;8.23;;;4.30;72.10;;;;;;928137;150;27335;-76
2023/03/04 04:38:03;;;;;;;12.00;8.33;;;4.30;72.10;;;;;;925161;150;27375;-76
2023/03/04 04:40:29;;;;;;;11.23;8.40;;;4.30;72.10;;;;;;928480;150;27360;-76
2023/03/04 04:42:56;;;;;;;13.83;8.80;;;4.30;72.10;;;;;;928545;150;28650;-76
2023/03/04 04:45:23;;;;;;;11.17;8.43;;;4.30;72.50;;;;;;927783;150;27391;-76
2023/03/04 04:47:49;;;;;;;16.43;8.73;;;4.40;72.10;;;;;;927630;150;27408;-76
2023/03/04 04:50:15;;;;;;;12.97;9.03;;;4.40;72.20;;;;;;926312;150;27365;-76
2023/03/04 04:52:42;;;;;;;11.60;8.03;;;4.40;72.10;;;;;;928058;150;27386;-76
2023/03/04 04:55:09;;;;;;;12.07;8.07;;;4.40;72.10;;;;;;928622;150;27512;-76
2023/03/04 04:57:35;;;;;;;10.10;8.47;;;4.40;72.00;;;;;;926796;150;27448;-76
2023/03/04 05:00:02;;;;;;;14.10;8.83;;;4.40;72.10;;;;;;927119;150;27351;-76
2023/03/04 05:02:29;;;;;;;11.07;7.73;;;4.40;72.00;;;;;;925485;151;27359;-76
2023/03/04 05:04:55;;;;;;;11.43;8.03;;;4.40;72.10;;;;;;910505;153;27501;-76
2023/03/04 05:07:22;;;;;;;11.33;8.03;;;4.40;72.00;;;;;;926661;151;27424;-76
2023/03/04 05:09:48;;;;;;;12.53;8.77;;;4.40;72.00;;;;;;909150;154;27387;-76
2023/03/04 05:12:15;;;;;;;12.03;8.07;;;4.40;72.80;;;;;;942146;148;27325;-76
2023/03/04 05:14:41;;;;;;;11.60;7.67;;;4.40;72.00;;;;;;938950;148;27482;-76
2023/03/04 05:17:08;;;;;;;12.40;8.03;;;4.40;72.00;;;;;;924086;151;27386;-76
2023/03/04 05:19:35;;;;;;;12.33;8.27;;;4.40;72.00;;;;;;926735;151;27367;-76
2023/03/04 05:22:01;;;;;;;12.23;8.07;;;4.40;72.10;;;;;;905733;154;27358;-76
2023/03/04 05:24:28;;;;;;;11.13;8.33;;;4.40;72.10;;;;;;904683;154;27438;-76
2023/03/04 05:26:54;;;;;;;10.40;8.37;;;4.40;72.10;;;;;;916957;152;27513;-76
2023/03/04 05:29:21;;;;;;;12.30;8.40;;;4.40;72.10;;;;;;905440;154;27407;-76
2023/03/04 05:31:47;;;;;;;11.27;8.53;;;4.40;72.10;;;;;;905631;153;27394;-75
2023/03/04 05:34:14;;;;;;;11.80;8.43;;;4.40;72.20;;;;;;905591;154;27359;-75
2023/03/04 05:36:41;;;;;;;10.70;7.63;;;4.30;72.10;;;;;;900776;155;27508;-75
2023/03/04 05:39:07;;;;;;;11.70;7.53;;;4.40;72.40;;;;;;903255;154;27417;-75
2023/03/04 05:41:34;;;;;;;10.63;8.13;;;4.30;72.20;;;;;;923828;151;27943;-75
2023/03/04 05:44:00;;;;;;;11.90;8.50;;;4.40;72.30;;;;;;940107;148;27349;-75
2023/03/04 05:46:27;;;;;;;12.50;7.73;;;4.40;72.50;;;;;;939203;148;27386;-75
2023/03/04 05:48:54;;;;;;;12.83;9.07;;;4.40;72.50;;;;;;939455;148;27392;-75
2023/03/04 05:51:20;;;;;;;11.90;8.30;;;4.40;72.50;;;;;;925137;150;27370;-75
2023/03/04 05:53:47;;;;;;;11.20;8.30;;;4.40;72.50;;;;;;924900;151;27478;-75
2023/03/04 05:56:13;;;;;;;10.77;7.43;;;4.40;72.60;;;;;;920488;152;27485;-75
2023/03/04 05:58:40;;;;;;;9.60;7.33;;;4.40;72.50;;;;;;903710;154;27870;-75
2023/03/04 06:01:07;;;;;;;11.83;8.30;;;4.40;72.50;;;;;;922592;151;27466;-75
2023/03/04 06:03:33;;;;;;;12.00;8.87;;;4.40;72.30;;;;;;938720;148;27448;-75
2023/03/04 06:06:00;;;;;;;9.83;7.30;;;4.40;72.40;;;;;;924833;151;27367;-75
2023/03/04 06:08:26;;;;;;;11.43;8.30;;;4.40;72.40;;;;;;905024;154;27448;-75
2023/03/04 06:10:53;;;;;;;13.43;8.30;;;4.40;72.40;;;;;;922277;151;28423;-75
2023/03/04 06:13:19;;;;;;;10.87;8.50;;;4.40;72.50;;;;;;909973;153;27439;-75
2023/03/04 06:15:46;;;;;;;11.27;8.47;;;4.40;72.50;;;;;;928898;153;27400;-75
2023/03/04 06:18:13;;;;;;;10.97;8.00;;;4.40;72.50;;;;;;926161;151;27395;-75
2023/03/04 06:20:40;;;;;;;14.27;9.00;;;4.50;72.60;;;;;;925525;151;27397;-75
2023/03/04 06:23:06;;;;;;;12.50;8.70;;;4.50;72.60;;;;;;924334;153;27358;-75
2023/03/04 06:25:32;;;;;;;11.50;8.17;;;4.50;72.60;;;;;;927043;153;27457;-75
2023/03/04 06:27:59;;;;;;;15.07;9.93;;;4.50;72.60;;;;;;924589;153;27453;-75
2023/03/04 06:30:26;;;;;;;11.43;8.43;;;4.50;72.60;;;;;;925583;153;27390;-75
2023/03/04 06:32:52;;;;;;;11.93;8.83;;;4.50;72.50;;;;;;925113;153;27402;-75
2023/03/04 06:35:19;;;;;;;13.47;9.33;;;4.60;72.60;;;;;;926094;153;27492;-75
2023/03/04 06:37:45;;;;;;;12.10;8.33;;;4.60;72.60;;;;;;924261;151;27362;-75
2023/03/04 06:40:12;;;;;;;13.03;9.17;;;4.60;72.60;;;;;;926528;151;27477;-75
2023/03/04 06:42:39;;;;;;;13.03;9.50;;;4.60;72.50;;;;;;925136;151;27501;-75
2023/03/04 06:45:05;;;;;;;14.50;9.90;;;4.60;72.50;;;;;;924627;151;27358;-75
2023/03/04 06:47:32;;;;;;;12.40;8.50;;;4.60;72.50;;;;;;925266;153;27391;-75
2023/03/04 06:49:58;;;;;;;13.57;9.30;;;4.70;72.60;;;;;;925512;151;27365;-75
2023/03/04 06:52:25;;;;;;;12.03;8.93;;;4.70;72.60;;;;;;924755;151;27394;-75
2023/03/04 06:54:51;;;;;;;13.43;9.87;;;4.70;72.60;;;;;;927930;151;28216;-75
2023/03/04 06:57:18;;;;;;;11.43;8.90;;;4.70;72.60;;;;;;925163;151;27376;-75
2023/03/04 06:59:45;;;;;;;15.77;10.10;;;4.80;72.70;;;;;;924023;153;27335;-75
2023/03/04 07:02:11;;;;;;;12.67;9.33;;;4.80;72.80;;;;;;925354;151;27472;-75
2023/03/04 07:04:38;;;;;;;13.23;9.23;;;4.80;72.60;;;;;;924269;151;27390;-75
2023/03/04 07:07:04;;;;;;;14.50;10.27;;;4.80;72.50;;;;;;924616;151;27375;-75
2023/03/04 07:09:31;;;;;;;13.37;10.27;;;4.80;72.50;;;;;;924910;153;27435;-75
2023/03/04 07:11:57;;;;;;;12.90;9.47;;;4.90;72.50;;;;;;925704;151;27347;-75
2023/03/04 07:14:24;;;;;;;17.87;11.83;;;4.90;72.50;;;;;;922180;151;27439;-75
2023/03/04 07:16:51;;;;;;;14.33;10.63;;;4.90;72.50;;;;;;929201;150;27427;-75
2023/03/04 07:19:17;;;;;;;15.30;10.60;;;5.00;72.70;;;;;;924407;151;27370;-75
2023/03/04 07:21:44;;;;;;;13.87;10.43;;;5.00;72.50;;;;;;910255;153;27897;-75
2023/03/04 07:24:10;;;;;;;11.53;10.10;;;5.00;72.70;;;;;;912733;153;27415;-75
2023/03/04 07:26:37;;;;;;;13.00;9.53;;;5.10;72.70;;;;;;907471;153;27417;-75
2023/03/04 07:29:04;;;;;;;13.47;9.70;;;5.10;72.60;;;;;;925168;150;27407;-75
2023/03/04 07:31:30;;;;;;;13.13;9.43;;;5.10;72.50;;;;;;926907;150;27463;-75
2023/03/04 07:33:57;;;;;;;13.03;9.23;;;5.20;72.60;;;;;;926847;150;27540;-75
2023/03/04 07:36:23;;;;;;;11.20;9.13;;;5.20;72.60;;;;;;928871;152;27414;-75
2023/03/04 07:38:50;;;;;;;13.57;9.90;;;5.20;72.50;;;;;;925257;153;27542;-76
2023/03/04 07:41:17;;;;;;;14.07;10.73;;;5.30;72.70;;;;;;926208;153;27403;-76
2023/03/04 07:43:43;;;;;;;13.10;9.50;;;5.30;72.70;;;;;;925583;150;27373;-75
2023/03/04 07:46:10;;;;;;;13.37;9.87;;;5.40;72.70;;;;;;926830;150;27403;-75
2023/03/04 07:48:36;;;;;;;11.07;9.00;;;5.40;72.60;;;;;;926661;150;27475;-75
2023/03/04 07:51:03;;;;;;;15.27;10.53;;;5.50;72.70;;;;;;926442;153;27476;-75
2023/03/04 07:53:29;;;;;;;16.07;10.53;;;5.50;72.60;;;;;;923230;151;27372;-75
2023/03/04 07:55:56;;;;;;;15.40;10.80;;;5.60;72.60;;;;;;925010;151;27347;-75
2023/03/04 07:58:26;;;;;;;15.40;10.80;;;5.60;72.50;;;;;;910676;153;27503;-76
2023/03/04 08:00:49;;;;;;;14.77;10.73;;;5.60;72.50;;;;;;908472;153;28157;-81
2023/03/04 08:03:16;;;;;;;15.10;10.13;;;5.70;72.60;;;;;;918223;153;27408;-81
2023/03/04 08:05:42;;;;;;;14.63;10.57;;;5.80;72.60;;;;;;912460;152;27452;-81
2023/03/04 08:08:09;;;;;;;15.50;11.13;;;5.90;72.60;;;;;;909479;153;27571;-82
2023/03/04 08:10:38;;;;;;;15.87;10.63;;;5.90;72.40;;;;;;910686;152;27552;-80
2023/03/04 08:13:02;;;;;;;12.63;9.93;;;6.00;72.40;;;;;;925910;151;27496;-81
2023/03/04 08:15:31;;;;;;;13.70;10.43;;;6.10;72.40;;;;;;939845;148;27312;-81
2023/03/04 08:17:55;;;;;;;14.43;10.93;;;6.10;72.30;;;;;;941585;148;27401;-81
2023/03/04 08:20:22;;;;;;;18.13;11.10;;;6.20;72.40;;;;;;924382;151;27476;-81
2023/03/04 08:22:49;;;;;;;13.93;10.17;;;6.30;72.30;;;;;;924282;151;27342;-81
2023/03/04 08:25:15;;;;;;;16.53;11.27;;;6.30;72.30;;;;;;920771;151;27412;-81
2023/03/04 08:27:42;;;;;;;14.23;11.13;;;6.40;72.20;;;;;;923203;151;27450;-81
2023/03/04 08:30:08;;;;;;;19.20;12.07;;;6.40;72.10;;;;;;924107;150;27482;-82
2023/03/04 08:32:35;;;;;;;14.90;11.40;;;6.50;72.00;;;;;;924092;150;27353;-82
2023/03/04 08:35:02;;;;;;;14.17;10.93;;;6.50;71.90;;;;;;924959;150;27450;-82
2023/03/04 08:37:31;;;;;;;16.77;11.10;;;6.60;71.70;;;;;;922760;150;27456;-81
2023/03/04 08:39:58;;;;;;;13.13;10.00;;;6.60;71.70;;;;;;924723;151;27498;-82
2023/03/04 08:42:24;;;;;;;15.30;11.27;;;6.60;71.70;;;;;;924297;150;27480;-81
2023/03/04 08:44:51;;;;;;;15.77;11.10;;;6.70;71.70;;;;;;925480;150;27429;-81
2023/03/04 08:47:17;;;;;;;15.57;11.50;;;6.80;71.70;;;;;;923056;150;27441;-82
2023/03/04 08:49:44;;;;;;;17.60;12.33;;;6.80;71.70;;;;;;920747;150;27411;-81
2023/03/04 08:52:10;;;;;;;14.20;10.83;;;6.90;71.60;;;;;;923250;150;27406;-81
2023/03/04 08:54:37;;;;;;;15.93;11.70;;;7.00;71.50;;;;;;921553;150;27915;-81
2023/03/04 08:57:06;;;;;;;16.07;11.67;;;7.00;71.40;;;;;;923923;151;27355;-81
2023/03/04 08:59:30;;;;;;;17.40;11.87;;;7.00;71.40;;;;;;922300;151;27771;-81
2023/03/04 09:01:57;;;;;;;16.17;11.43;;;7.10;71.40;;;;;;924972;151;27378;-82
2023/03/04 09:04:23;;;;;;;15.47;11.80;;;7.10;71.40;;;;;;923815;151;27411;-81
2023/03/04 09:06:50;;;;;;;16.00;11.83;;;7.30;71.40;;;;;;923684;151;27351;-81
2023/03/04 09:09:17;;;;;;;14.33;10.70;;;7.30;71.40;;;;;;922713;151;27429;-82
2023/03/04 09:11:43;;;;;;;17.60;12.07;;;7.40;71.30;;;;;;919069;152;27408;-81
2023/03/04 09:14:10;;;;;;;16.90;13.00;;;7.40;71.20;;;;;;907370;152;27455;-81
2023/03/04 09:16:36;;;;;;;15.10;11.33;;;7.50;71.40;;;;;;919412;152;27456;-82
2023/03/04 09:19:03;;;;;;;14.37;11.10;;;7.60;71.30;;;;;;914658;152;27388;-82
2023/03/04 09:21:30;;;;;;;15.37;11.53;;;7.60;71.40;;;;;;928276;151;27369;-82
2023/03/04 09:23:56;;;;;;;14.90;11.73;;;7.70;71.20;;;;;;927514;149;27406;-82
2023/03/04 09:26:23;;;;;;;16.67;12.43;;;7.80;71.60;;;;;;930205;150;27752;-81
2023/03/04 09:28:52;;;;;;;15.57;12.07;;;7.90;71.10;;;;;;913709;153;27403;-82
2023/03/04 09:31:19;;;;;;;15.27;11.63;;;7.90;70.90;;;;;;927718;150;27359;-81
2023/03/04 09:33:45;;;;;;;14.87;11.67;;;8.00;70.80;;;;;;912560;152;27418;-82
2023/03/04 09:36:12;;;;;;;14.90;12.47;;;8.10;70.80;;;;;;929554;150;27444;-81
2023/03/04 09:38:38;;;;;;;17.10;12.87;;;8.10;70.70;;;;;;914465;152;27722;-82
2023/03/04 09:41:05;;;;;;;16.50;12.40;;;8.20;70.60;;;;;;919098;153;27365;-82
2023/03/04 09:43:31;;;;;;;18.13;14.07;;;8.20;70.60;;;;;;914225;153;27507;-82
2023/03/04 09:45:58;;;;;;;16.00;11.70;;;8.30;70.60;;;;;;915168;152;27513;-81
2023/03/04 09:48:25;;;;;;;18.83;12.80;;;8.30;70.50;;;;;;913440;153;27401;-81
2023/03/04 09:50:58;;;;;;;16.20;12.17;;;8.40;70.70;;;;;;914526;152;27837;-81
2023/03/04 09:53:24;;;;;;;15.43;13.20;;;8.50;70.70;;;;;;913917;153;27491;-82
2023/03/04 09:55:51;;;;;;;19.97;12.67;;;8.60;70.70;;;;;;921492;150;27414;-82
2023/03/04 09:58:26;;;;;;;17.50;12.23;;;8.70;70.70;;;;;;920202;151;27359;-82
2023/03/04 10:00:55;;;;;;;16.50;12.00;;;8.80;70.70;;;;;;914347;153;27376;-82
2023/03/04 10:03:25;;;;;;;15.47;11.73;;;8.90;70.60;;;;;;914048;152;28513;-82
2023/03/04 10:05:52;;;;;;;17.93;12.83;;;9.00;70.60;;;;;;909869;153;27491;-82
2023/03/04 10:08:43;;;;;;;18.47;12.50;;;9.10;70.60;;;;;;916437;153;27474;-79
2023/03/04 10:11:28;;;;;;;14.97;12.63;;;9.10;70.40;;;;;;928411;150;27417;-78
2023/03/04 10:14:00;;;;;;;15.87;10.33;;;9.30;70.30;;;;;;929111;150;27514;-78
2023/03/04 10:16:27;;;;;;;16.23;10.70;;;9.40;70.00;;;;;;905143;154;27425;-78
2023/03/04 10:18:56;;;;;;;14.50;9.90;;;9.40;69.70;;;;;;924624;153;27412;-77
2023/03/04 10:21:31;;;;;;;11.70;8.77;;;9.50;69.30;;;;;;922912;153;27537;-78
2023/03/04 10:23:58;;;;;;;11.23;8.40;;;9.60;69.00;;;;;;923034;151;27473;-78
2023/03/04 10:26:25;;;;;;;14.40;8.90;;;9.70;68.90;;;;;;925788;153;27421;-78
2023/03/04 10:28:51;;;;;;;16.60;8.97;;;9.80;68.50;;;;;;925530;151;27389;-77
2023/03/04 10:31:21;;;;;;;12.53;9.00;;;9.90;68.40;;;;;;925619;153;27375;-78
2023/03/04 10:33:47;;;;;;;12.73;8.90;;;9.90;68.10;;;;;;909791;153;27372;-78
2023/03/04 10:36:29;;;;;;;16.40;8.87;;;10.00;67.80;;;;;;909877;153;27519;-78
2023/03/04 10:39:07;;;;;;;16.70;10.17;;;10.10;67.60;;;;;;910323;153;27542;-79
2023/03/04 10:41:34;;;;;;;24.40;11.23;;;10.20;67.60;;;;;;926409;151;27879;-79
2023/03/04 10:44:04;;;;;;;18.53;10.90;;;10.30;67.40;;;;;;920425;151;27440;-78
2023/03/04 10:46:30;;;;;;;13.30;9.07;;;10.40;67.10;;;;;;925795;150;27406;-78
2023/03/04 10:48:57;;;;;;;13.93;9.70;;;10.40;66.80;;;;;;911821;153;27424;-78
2023/03/04 10:51:23;;;;;;;18.03;11.40;;;10.50;65.80;;;;;;925932;151;27378;-78
2023/03/04 10:53:50;;;;;;;15.83;8.80;;;10.50;66.20;;;;;;909343;152;27425;-78
2023/03/04 10:56:32;;;;;;;21.13;9.83;;;10.60;66.10;;;;;;924114;151;27453;-78
2023/03/04 10:59:32;;;;;;;14.77;9.60;;;10.60;66.00;;;;;;924748;151;27308;-79
2023/03/04 11:01:59;;;;;;;16.17;10.00;;;10.60;65.80;;;;;;910901;153;27501;-78
2023/03/04 11:04:25;;;;;;;17.03;9.73;;;10.60;65.70;;;;;;928692;153;27468;-78
2023/03/04 11:06:52;;;;;;;16.37;9.87;;;10.60;65.70;;;;;;925225;151;27390;-78
2023/03/04 11:09:21;;;;;;;13.50;8.73;;;10.70;65.70;;;;;;924803;153;28241;-78
2023/03/04 11:11:48;;;;;;;13.40;9.20;;;10.70;65.70;;;;;;925963;153;27358;-77
2023/03/04 11:14:30;;;;;;;14.73;9.30;;;10.70;65.40;;;;;;926804;153;27343;-79
2023/03/04 11:16:56;;;;;;;13.67;8.73;;;10.80;65.30;;;;;;922453;151;27459;-78
2023/03/04 11:19:23;;;;;;;11.00;8.60;;;10.80;65.30;;;;;;921336;151;27488;-79
2023/03/04 11:21:49;;;;;;;13.87;9.03;;;10.80;65.10;;;;;;938968;148;27358;-78
2023/03/04 11:24:16;;;;;;;11.87;7.43;;;10.90;65.10;;;;;;913228;153;27525;-78
2023/03/04 11:26:42;;;;;;;13.57;9.00;;;10.90;65.00;;;;;;903310;155;27447;-78
2023/03/04 11:29:18;;;;;;;14.63;9.00;;;10.90;64.80;;;;;;902767;155;27425;-78
2023/03/04 11:31:53;;;;;;;14.03;9.03;;;11.00;64.70;;;;;;906058;154;27386;-78
2023/03/04 11:34:31;;;;;;;17.23;8.63;;;11.00;64.70;;;;;;902207;154;27439;-78
2023/03/04 11:37:02;;;;;;;12.70;9.03;;;11.00;64.70;;;;;;902999;155;28114;-78
2023/03/04 11:39:33;;;;;;;15.40;8.90;;;11.10;64.60;;;;;;905574;153;27310;-78
2023/03/04 11:42:03;;;;;;;14.53;7.80;;;11.10;64.40;;;;;;900500;153;27403;-78
2023/03/04 11:44:29;;;;;;;12.90;8.87;;;11.10;64.20;;;;;;897166;154;27993;-78
2023/03/04 11:47:01;;;;;;;13.27;9.03;;;11.10;64.10;;;;;;903855;154;27504;-77
2023/03/04 11:49:31;;;;;;;15.30;8.43;;;11.20;64.20;;;;;;918261;152;27386;-78
2023/03/04 11:52:19;;;;;;;11.53;7.87;;;11.20;64.20;;;;;;917241;152;27966;-78
2023/03/04 11:55:07;;;;;;;12.97;8.07;;;11.20;64.10;;;;;;919612;151;27485;-78
2023/03/04 11:57:36;;;;;;;12.03;7.87;;;11.20;63.90;;;;;;919607;152;27784;-78
2023/03/04 12:00:21;;;;;;;11.57;8.33;;;11.30;63.90;;;;;;917913;152;27344;-77
2023/03/04 12:02:51;;;;;;;14.87;8.40;;;11.30;63.80;;;;;;918888;152;27395;-78
2023/03/04 12:05:29;;;;;;;12.70;8.57;;;11.30;63.60;;;;;;915407;152;27309;-78
2023/03/04 12:08:08;;;;;;;11.77;8.40;;;11.20;63.40;;;;;;918526;152;27401;-75
2023/03/04 12:10:41;;;;;;;14.57;9.40;;;11.20;63.40;;;;;;917824;152;27395;-75
2023/03/04 12:13:29;;;;;;;12.50;8.73;;;11.20;63.40;;;;;;911713;152;27392;-75
2023/03/04 12:16:10;;;;;;;13.23;9.13;;;11.20;63.40;;;;;;918817;152;27481;-75
2023/03/04 12:18:42;;;;;;;11.87;8.60;;;11.30;63.50;;;;;;914622;151;27361;-75
2023/03/04 12:21:37;;;;;;;12.63;9.17;;;11.30;63.50;;;;;;887573;153;27365;-75
2023/03/04 12:24:11;;;;;;;14.97;9.30;;;11.30;63.30;;;;;;909235;153;27376;-75
2023/03/04 12:27:05;;;;;;;12.37;8.60;;;11.30;63.50;;;;;;908645;154;27500;-75
2023/03/04 12:29:35;;;;;;;14.67;8.70;;;11.30;63.40;;;;;;909209;153;27405;-75
2023/03/04 12:32:13;;;;;;;10.93;8.43;;;11.30;63.50;;;;;;907829;154;27432;-75
2023/03/04 12:34:46;;;;;;;11.07;8.07;;;11.30;63.50;;;;;;903572;153;27424;-75
2023/03/04 12:37:12;;;;;;;14.33;8.43;;;11.40;63.50;;;;;;902172;151;27470;-75
2023/03/04 12:39:51;;;;;;;17.47;8.70;;;11.50;63.40;;;;;;909170;153;27557;-75
2023/03/04 12:42:23;;;;;;;11.07;8.73;;;11.50;63.30;;;;;;909651;153;27411;-75
2023/03/04 12:44:53;;;;;;;13.53;8.83;;;11.60;63.50;;;;;;918144;153;27420;-74
2023/03/04 12:47:22;;;;;;;11.20;8.50;;;11.70;63.40;;;;;;926306;151;27363;-74
2023/03/04 12:49:55;;;;;;;11.60;8.27;;;11.80;63.50;;;;;;909787;153;27507;-74